Time;durP1;ratioP1;P1;durP2;ratioP2;P2;SDS_P1;SDS_P2;PMS_P1;PMS_P2;Temp;Humidity;BMP_temperature;BMP_pressure;BME280_temperature;BME280_humidity;BME280_pressure;Samples;Min_cycle;Max_cycle;Signal;HPM_P1;HPM_P2
2022/12/16 00:00:03;;;;;;;1999.90;999.90;;;;;;;0.92;100.00;92274.34;5035809;28;20176;-61
2022/12/16 00:02:28;;;;;;;1999.90;999.90;;;;;;;0.99;100.00;92276.88;5053652;28;20199;-62
2022/12/16 00:04:56;;;;;;;1999.90;999.90;;;;;;;1.01;100.00;92287.94;5053352;28;20262;-62
2022/12/16 00:07:21;;;;;;;1999.90;999.90;;;;;;;1.01;100.00;92292.53;5053710;28;20171;-61
2022/12/16 00:09:47;;;;;;;1999.90;999.90;;;;;;;1.01;100.00;92289.84;5053776;28;20182;-61
2022/12/16 00:12:12;;;;;;;1999.90;999.90;;;;;;;0.94;100.00;92301.53;5053129;28;20202;-61
2022/12/16 00:14:37;;;;;;;1999.90;999.90;;;;;;;0.88;100.00;92297.84;5053558;28;20173;-73
2022/12/16 00:17:03;;;;;;;1999.90;999.90;;;;;;;0.96;100.00;92291.13;5053304;28;20168;-67
2022/12/16 00:19:28;;;;;;;1999.90;999.90;;;;;;;0.98;100.00;92312.94;5052770;28;20175;-67
2022/12/16 00:21:53;;;;;;;1999.90;999.90;;;;;;;1.00;100.00;92302.56;5053372;28;20175;-67
2022/12/16 00:24:19;;;;;;;1999.90;999.90;;;;;;;0.99;100.00;92306.41;5053239;28;20195;-68
2022/12/16 00:26:44;;;;;;;1999.90;999.90;;;;;;;1.01;100.00;92312.09;5053969;28;20226;-69
2022/12/16 00:29:10;;;;;;;1999.90;999.90;;;;;;;1.01;100.00;92317.47;5053107;28;20179;-67
2022/12/16 00:31:35;;;;;;;1999.90;999.90;;;;;;;1.05;100.00;92334.28;5053650;28;20177;-67
2022/12/16 00:34:00;;;;;;;1999.90;999.90;;;;;;;1.05;100.00;92336.97;5053030;28;20174;-69
2022/12/16 00:36:26;;;;;;;1999.90;999.90;;;;;;;1.08;100.00;92343.41;5053044;28;20186;-72
2022/12/16 00:38:51;;;;;;;1999.90;999.90;;;;;;;1.01;100.00;92349.72;5036048;28;20265;-71
2022/12/16 00:41:17;;;;;;;1999.90;999.90;;;;;;;1.04;100.00;92348.88;5052843;28;20174;-73
2022/12/16 00:43:42;;;;;;;1999.90;999.90;;;;;;;0.99;100.00;92365.50;5053348;28;20204;-73
2022/12/16 00:46:07;;;;;;;1999.90;999.90;;;;;;;0.92;100.00;92360.28;5056517;28;20178;-72
2022/12/16 00:48:33;;;;;;;1999.90;999.90;;;;;;;0.94;100.00;92370.63;5056313;28;20179;-72
2022/12/16 00:50:58;;;;;;;1999.90;999.90;;;;;;;0.96;100.00;92373.63;5057310;28;20175;-70
2022/12/16 00:53:24;;;;;;;1999.90;999.90;;;;;;;0.98;100.00;92377.41;5057110;28;20205;-67
2022/12/16 00:55:50;;;;;;;1999.90;999.90;;;;;;;1.00;100.00;92387.72;5056348;28;20205;-61
2022/12/16 00:58:16;;;;;;;1999.90;999.90;;;;;;;0.97;100.00;92386.63;5056492;28;20177;-61
2022/12/16 01:00:41;;;;;;;1999.90;999.90;;;;;;;0.89;100.00;92400.63;5055994;28;20184;-61
2022/12/16 01:03:07;;;;;;;1999.90;999.90;;;;;;;0.89;100.00;92417.50;5056188;28;20197;-61
2022/12/16 01:05:32;;;;;;;1999.90;999.90;;;;;;;0.82;100.00;92435.69;5056166;28;20191;-61
2022/12/16 01:07:58;;;;;;;1999.90;999.90;;;;;;;0.85;100.00;92432.94;5056344;28;20179;-61
2022/12/16 01:10:26;;;;;;;1999.90;999.90;;;;;;;0.97;100.00;92426.91;5056166;28;20183;-62
2022/12/16 01:12:52;;;;;;;1999.90;999.90;;;;;;;0.99;100.00;92446.06;5056831;28;20170;-62
2022/12/16 01:15:18;;;;;;;1999.90;999.90;;;;;;;0.90;100.00;92456.59;5056057;28;20264;-64
2022/12/16 01:17:45;;;;;;;1999.90;999.90;;;;;;;0.89;100.00;92460.47;5055569;28;20215;-62
2022/12/16 01:20:12;;;;;;;1999.90;999.90;;;;;;;0.90;100.00;92456.59;5056093;28;20175;-62
2022/12/16 01:22:37;;;;;;;1999.90;999.90;;;;;;;0.93;100.00;92461.16;5055796;28;20250;-63
2022/12/16 01:25:03;;;;;;;1999.90;999.90;;;;;;;0.88;100.00;92469.72;5056074;28;20176;-62
2022/12/16 01:27:29;;;;;;;1999.90;999.90;;;;;;;0.85;100.00;92486.63;5055468;28;20175;-67
2022/12/16 01:29:54;;;;;;;1999.90;999.90;;;;;;;0.94;100.00;92494.88;5056370;28;20198;-61
2022/12/16 01:32:20;;;;;;;1999.90;999.90;;;;;;;0.95;100.00;92501.78;5055869;28;20263;-73
2022/12/16 01:34:53;;;;;;;1999.90;999.90;;;;;;;0.90;100.00;92507.63;5055608;28;20278;-71
2022/12/16 01:37:19;;;;;;;1999.90;999.90;;;;;;;1.00;100.00;92504.00;5055549;28;20182;-73
2022/12/16 01:39:44;;;;;;;1999.90;999.90;;;;;;;0.93;100.00;92514.88;5056478;28;20181;-73
2022/12/16 01:42:15;;;;;;;1999.90;999.90;;;;;;;1.00;100.00;92519.34;5055558;28;20558;-71
2022/12/16 01:44:47;;;;;;;1999.90;999.90;;;;;;;1.06;100.00;92523.81;5055880;28;20212;-70
2022/12/16 01:47:20;;;;;;;1999.90;999.90;;;;;;;1.05;100.00;92527.66;5055581;28;20241;-70
2022/12/16 01:49:59;;;;;;;1999.90;999.90;;;;;;;0.94;100.00;92527.13;5055268;28;20191;-66
2022/12/16 01:52:37;;;;;;;1999.90;999.90;;;;;;;0.92;100.00;92540.22;5055891;28;20179;-66
2022/12/16 01:55:23;;;;;;;1999.90;999.90;;;;;;;0.98;100.00;92543.19;5054912;28;20190;-66
2022/12/16 01:57:53;;;;;;;1999.90;999.90;;;;;;;1.00;100.00;92544.28;5055358;28;20185;-65
2022/12/16 02:00:18;;;;;;;1999.90;999.90;;;;;;;0.98;100.00;92553.94;5054829;28;20201;-67
2022/12/16 02:02:46;;;;;;;1999.90;999.90;;;;;;;1.01;100.00;92553.06;5055965;28;20561;-65
2022/12/16 02:05:19;;;;;;;1999.90;999.90;;;;;;;0.94;100.00;92558.59;5055154;28;20201;-67
2022/12/16 02:07:55;;;;;;;1999.90;999.90;;;;;;;0.97;100.00;92558.53;5055846;28;20177;-68
2022/12/16 02:10:31;;;;;;;1999.90;999.90;;;;;;;0.89;100.00;92573.25;5055650;28;20232;-68
2022/12/16 02:13:11;;;;;;;1999.90;999.90;;;;;;;0.93;100.00;92573.94;5055481;28;20276;-68
2022/12/16 02:15:55;;;;;;;1999.90;999.90;;;;;;;0.91;100.00;92570.91;5055622;28;20179;-68
2022/12/16 02:18:23;;;;;;;1999.90;999.90;;;;;;;0.86;100.00;92584.81;5054904;28;20356;-69
2022/12/16 02:21:08;;;;;;;1999.90;999.90;;;;;;;0.93;100.00;92583.94;5055447;28;20321;-68
2022/12/16 02:24:07;;;;;;;1999.90;999.90;;;;;;;0.95;100.00;92585.03;5054671;28;20206;-67
2022/12/16 02:26:50;;;;;;;1999.90;999.90;;;;;;;0.98;100.00;92592.25;5050511;28;20276;-70
2022/12/16 02:29:53;;;;;;;1999.90;999.90;;;;;;;1.01;100.00;92591.44;5055060;28;20172;-70
2022/12/16 02:32:46;;;;;;;1999.90;999.90;;;;;;;1.01;100.00;92607.56;5054622;28;20274;-70
2022/12/16 02:35:24;;;;;;;1999.90;999.90;;;;;;;1.00;100.00;92610.66;5055042;28;20251;-69
2022/12/16 02:38:11;;;;;;;1999.90;999.90;;;;;;;1.05;100.00;92618.25;5055554;28;20190;-69
2022/12/16 02:40:55;;;;;;;1999.90;999.90;;;;;;;1.10;100.00;92625.84;5054907;28;20169;-69
2022/12/16 02:43:47;;;;;;;1999.90;999.90;;;;;;;1.12;100.00;92635.00;5054400;28;20234;-62
2022/12/16 02:46:13;;;;;;;1999.90;999.90;;;;;;;1.10;100.00;92631.97;5054987;28;20180;-70
2022/12/16 02:48:39;;;;;;;1999.90;999.90;;;;;;;1.10;100.00;92631.22;5054505;28;20275;-70
2022/12/16 02:51:04;;;;;;;1999.90;999.90;;;;;;;0.96;100.00;92640.28;5054586;28;20265;-70
2022/12/16 02:53:31;;;;;;;1999.90;999.90;;;;;;;1.01;100.00;92645.16;5054306;28;20257;-70
2022/12/16 02:56:27;;;;;;;1999.90;999.90;;;;;;;1.07;100.00;92643.53;5054811;28;20241;-70
2022/12/16 02:59:14;;;;;;;1999.90;999.90;;;;;;;0.97;100.00;92660.59;5054158;28;20187;-70
2022/12/16 03:02:11;;;;;;;1999.90;999.90;;;;;;;1.01;100.00;92655.16;5054813;28;20179;-70
2022/12/16 03:04:47;;;;;;;1999.90;999.90;;;;;;;1.03;100.00;92669.72;5054386;28;20265;-61
2022/12/16 03:07:16;;;;;;;1999.90;999.90;;;;;;;0.99;100.00;92679.75;5054070;28;20183;-62
2022/12/16 03:09:44;;;;;;;1999.90;999.90;;;;;;;1.03;100.00;92685.81;5054305;28;20271;-61
2022/12/16 03:12:13;;;;;;;1999.90;999.90;;;;;;;1.08;100.00;92677.28;5054996;28;20172;-62
2022/12/16 03:14:41;;;;;;;1999.90;999.90;;;;;;;1.06;100.00;92676.91;5053942;28;20184;-62
2022/12/16 03:17:08;;;;;;;1999.90;999.90;;;;;;;1.07;100.00;92675.78;5053767;28;20184;-62
2022/12/16 03:19:36;;;;;;;1999.90;999.90;;;;;;;1.06;100.00;92679.59;5054879;28;20203;-67
2022/12/16 03:22:26;;;;;;;1999.90;999.90;;;;;;;1.05;100.00;92680.78;5053922;28;20205;-69
2022/12/16 03:24:51;;;;;;;1999.90;999.90;;;;;;;1.08;100.00;92677.28;5054123;28;20192;-69
2022/12/16 03:27:30;;;;;;;1999.90;999.90;;;;;;;1.04;100.00;92671.22;5053817;28;20274;-70
2022/12/16 03:30:06;;;;;;;1999.90;999.90;;;;;;;1.04;100.00;92681.97;5054218;28;20233;-70
2022/12/16 03:32:34;;;;;;;1999.90;999.90;;;;;;;1.04;100.00;92686.56;5054144;28;20207;-71
2022/12/16 03:35:10;;;;;;;1999.90;999.90;;;;;;;1.01;100.00;92693.53;5054455;28;20230;-70
2022/12/16 03:37:37;;;;;;;1999.90;999.90;;;;;;;0.93;100.00;92697.50;5054161;28;20515;-61
2022/12/16 03:40:06;;;;;;;1999.90;999.90;;;;;;;0.99;100.00;92695.09;5054026;28;20173;-65
2022/12/16 03:42:33;;;;;;;1999.90;999.90;;;;;;;1.03;100.00;92696.56;5053291;28;20211;-65
2022/12/16 03:44:59;;;;;;;1999.90;999.90;;;;;;;1.05;100.00;92709.59;5053200;28;20166;-66
2022/12/16 03:47:26;;;;;;;1999.90;999.90;;;;;;;0.96;100.00;92722.78;5053064;28;20173;-66
2022/12/16 03:49:52;;;;;;;1999.90;999.90;;;;;;;0.82;100.00;92729.13;5053162;28;20170;-65
2022/12/16 03:52:17;;;;;;;1999.90;999.90;;;;;;;0.84;100.00;92731.41;5053105;28;20238;-65
2022/12/16 03:54:42;;;;;;;1999.90;999.90;;;;;;;0.83;100.00;92754.06;5053504;28;20237;-62
2022/12/16 03:57:08;;;;;;;1999.90;999.90;;;;;;;0.77;100.00;92761.81;5053952;28;20182;-61
2022/12/16 03:59:33;;;;;;;1999.90;999.90;;;;;;;0.72;100.00;92781.06;5054310;28;20179;-69
2022/12/16 04:01:59;;;;;;;1999.90;999.90;;;;;;;0.68;100.00;92793.00;5053083;28;20170;-69
2022/12/16 04:04:25;;;;;;;1999.90;999.90;;;;;;;0.67;100.00;92792.25;5053961;28;20199;-69
2022/12/16 04:07:19;;;;;;;1999.90;999.90;;;;;;;0.66;100.00;92801.47;5052855;28;20194;-68
2022/12/16 04:09:35;;;;;;;1999.90;999.90;;;;;;;0.60;100.00;92824.56;5054001;28;20190;-68
2022/12/16 04:25:46;;;;;;;1999.90;999.90;;;;;;;0.52;100.00;92924.38;5058323;28;20170;-69
2022/12/16 04:28:11;;;;;;;1999.90;999.90;;;;;;;0.52;100.00;92935.88;5057523;28;20267;-70
2022/12/16 04:30:37;;;;;;;1999.90;999.90;;;;;;;0.55;100.00;92948.50;5057389;28;20180;-70
